sensor_id;sensor_type;location;lat;lon;timestamp;P1;durP1;ratioP1;P2;durP2;ratioP2
74941;SDS011;63506;49.346;8.798;2023-09-12T00:01:10;14.90;;;8.38;;
74941;SDS011;63506;49.346;8.798;2023-09-12T00:03:38;12.15;;;7.47;;
74941;SDS011;63506;49.346;8.798;2023-09-12T00:06:07;11.48;;;8.15;;
74941;SDS011;63506;49.346;8.798;2023-09-12T00:08:34;10.93;;;7.55;;
74941;SDS011;63506;49.346;8.798;2023-09-12T00:11:07;13.80;;;9.23;;
74941;SDS011;63506;49.346;8.798;2023-09-12T00:13:37;12.18;;;8.05;;
74941;SDS011;63506;49.346;8.798;2023-09-12T00:16:05;12.70;;;8.18;;
74941;SDS011;63506;49.346;8.798;2023-09-12T00:18:35;11.65;;;8.70;;
74941;SDS011;63506;49.346;8.798;2023-09-12T00:21:02;14.43;;;8.68;;
74941;SDS011;63506;49.346;8.798;2023-09-12T00:23:31;16.85;;;8.65;;
74941;SDS011;63506;49.346;8.798;2023-09-12T00:25:59;15.10;;;8.75;;
74941;SDS011;63506;49.346;8.798;2023-09-12T00:28:26;10.77;;;7.53;;
74941;SDS011;63506;49.346;8.798;2023-09-12T00:30:55;10.05;;;9.00;;
74941;SDS011;63506;49.346;8.798;2023-09-12T00:33:22;9.13;;;7.43;;
74941;SDS011;63506;49.346;8.798;2023-09-12T00:35:52;14.82;;;8.90;;
74941;SDS011;63506;49.346;8.798;2023-09-12T00:38:19;14.65;;;8.73;;
74941;SDS011;63506;49.346;8.798;2023-09-12T00:40:48;9.75;;;8.32;;
74941;SDS011;63506;49.346;8.798;2023-09-12T00:43:15;13.05;;;9.50;;
74941;SDS011;63506;49.346;8.798;2023-09-12T00:45:45;11.90;;;8.43;;
74941;SDS011;63506;49.346;8.798;2023-09-12T00:48:12;10.50;;;7.10;;
74941;SDS011;63506;49.346;8.798;2023-09-12T00:50:40;8.48;;;7.60;;
74941;SDS011;63506;49.346;8.798;2023-09-12T00:53:08;11.65;;;8.60;;
74941;SDS011;63506;49.346;8.798;2023-09-12T00:55:36;11.30;;;8.73;;
74941;SDS011;63506;49.346;8.798;2023-09-12T00:58:08;8.40;;;7.30;;
74941;SDS011;63506;49.346;8.798;2023-09-12T01:00:36;11.95;;;9.25;;
74941;SDS011;63506;49.346;8.798;2023-09-12T01:03:04;12.70;;;9.05;;
74941;SDS011;63506;49.346;8.798;2023-09-12T01:05:32;17.13;;;9.57;;
74941;SDS011;63506;49.346;8.798;2023-09-12T01:07:59;9.75;;;7.47;;
74941;SDS011;63506;49.346;8.798;2023-09-12T01:10:27;9.82;;;7.75;;
74941;SDS011;63506;49.346;8.798;2023-09-12T01:12:55;8.70;;;7.55;;
74941;SDS011;63506;49.346;8.798;2023-09-12T01:15:24;11.32;;;8.05;;
74941;SDS011;63506;49.346;8.798;2023-09-12T01:17:51;18.83;;;9.88;;
74941;SDS011;63506;49.346;8.798;2023-09-12T01:20:19;11.25;;;8.25;;
74941;SDS011;63506;49.346;8.798;2023-09-12T01:22:54;16.55;;;9.52;;
74941;SDS011;63506;49.346;8.798;2023-09-12T01:25:42;9.68;;;7.28;;
74941;SDS011;63506;49.346;8.798;2023-09-12T01:28:21;15.35;;;8.05;;
74941;SDS011;63506;49.346;8.798;2023-09-12T01:30:51;15.52;;;8.88;;
74941;SDS011;63506;49.346;8.798;2023-09-12T01:33:20;18.08;;;10.20;;
74941;SDS011;63506;49.346;8.798;2023-09-12T01:35:47;10.13;;;8.05;;
74941;SDS011;63506;49.346;8.798;2023-09-12T01:38:15;15.30;;;8.02;;
74941;SDS011;63506;49.346;8.798;2023-09-12T01:40:43;15.15;;;10.05;;
74941;SDS011;63506;49.346;8.798;2023-09-12T01:43:15;16.63;;;7.28;;
74941;SDS011;63506;49.346;8.798;2023-09-12T01:45:45;10.05;;;7.80;;
74941;SDS011;63506;49.346;8.798;2023-09-12T01:48:14;9.52;;;8.13;;
74941;SDS011;63506;49.346;8.798;2023-09-12T01:50:46;13.30;;;9.65;;
74941;SDS011;63506;49.346;8.798;2023-09-12T01:53:14;13.50;;;8.02;;
74941;SDS011;63506;49.346;8.798;2023-09-12T01:55:42;9.43;;;7.78;;
74941;SDS011;63506;49.346;8.798;2023-09-12T01:58:11;20.58;;;10.15;;
74941;SDS011;63506;49.346;8.798;2023-09-12T02:00:40;13.27;;;9.35;;
74941;SDS011;63506;49.346;8.798;2023-09-12T02:03:11;11.55;;;8.80;;
74941;SDS011;63506;49.346;8.798;2023-09-12T02:05:39;16.75;;;8.20;;
74941;SDS011;63506;49.346;8.798;2023-09-12T02:08:07;10.38;;;7.97;;
74941;SDS011;63506;49.346;8.798;2023-09-12T02:10:35;14.50;;;9.07;;
74941;SDS011;63506;49.346;8.798;2023-09-12T02:13:03;17.55;;;8.25;;
74941;SDS011;63506;49.346;8.798;2023-09-12T02:15:31;10.73;;;8.25;;
74941;SDS011;63506;49.346;8.798;2023-09-12T02:17:58;12.82;;;9.88;;
74941;SDS011;63506;49.346;8.798;2023-09-12T02:20:32;16.15;;;10.55;;
74941;SDS011;63506;49.346;8.798;2023-09-12T02:22:59;14.45;;;7.75;;
74941;SDS011;63506;49.346;8.798;2023-09-12T02:25:26;12.60;;;8.18;;
74941;SDS011;63506;49.346;8.798;2023-09-12T02:27:54;12.50;;;8.45;;
74941;SDS011;63506;49.346;8.798;2023-09-12T02:30:22;11.15;;;8.85;;
74941;SDS011;63506;49.346;8.798;2023-09-12T02:32:51;17.13;;;9.07;;
74941;SDS011;63506;49.346;8.798;2023-09-12T02:35:19;13.77;;;8.75;;
74941;SDS011;63506;49.346;8.798;2023-09-12T02:37:48;10.73;;;7.55;;
74941;SDS011;63506;49.346;8.798;2023-09-12T02:40:15;11.55;;;7.53;;
74941;SDS011;63506;49.346;8.798;2023-09-12T02:42:46;15.00;;;7.90;;
74941;SDS011;63506;49.346;8.798;2023-09-12T02:45:14;12.60;;;9.57;;
74941;SDS011;63506;49.346;8.798;2023-09-12T02:47:41;10.68;;;7.75;;
74941;SDS011;63506;49.346;8.798;2023-09-12T02:50:09;10.02;;;8.90;;
74941;SDS011;63506;49.346;8.798;2023-09-12T02:52:37;13.50;;;8.27;;
74941;SDS011;63506;49.346;8.798;2023-09-12T02:55:06;16.25;;;9.10;;
74941;SDS011;63506;49.346;8.798;2023-09-12T02:57:34;12.45;;;8.18;;
74941;SDS011;63506;49.346;8.798;2023-09-12T03:00:01;12.68;;;8.57;;
74941;SDS011;63506;49.346;8.798;2023-09-12T03:02:32;16.30;;;8.10;;
74941;SDS011;63506;49.346;8.798;2023-09-12T03:05:02;12.60;;;8.15;;
74941;SDS011;63506;49.346;8.798;2023-09-12T03:07:32;11.90;;;8.38;;
74941;SDS011;63506;49.346;8.798;2023-09-12T03:10:00;10.68;;;8.10;;
74941;SDS011;63506;49.346;8.798;2023-09-12T03:12:29;10.45;;;6.90;;
74941;SDS011;63506;49.346;8.798;2023-09-12T03:14:57;10.43;;;7.63;;
74941;SDS011;63506;49.346;8.798;2023-09-12T03:17:25;16.60;;;9.93;;
74941;SDS011;63506;49.346;8.798;2023-09-12T03:19:53;11.00;;;9.70;;
74941;SDS011;63506;49.346;8.798;2023-09-12T03:22:22;14.25;;;8.38;;
74941;SDS011;63506;49.346;8.798;2023-09-12T03:24:50;10.98;;;9.38;;
74941;SDS011;63506;49.346;8.798;2023-09-12T03:27:22;11.43;;;8.70;;
74941;SDS011;63506;49.346;8.798;2023-09-12T03:29:51;12.07;;;9.43;;
74941;SDS011;63506;49.346;8.798;2023-09-12T03:32:19;13.75;;;10.60;;
74941;SDS011;63506;49.346;8.798;2023-09-12T03:34:46;9.15;;;8.20;;
74941;SDS011;63506;49.346;8.798;2023-09-12T03:37:14;9.05;;;7.97;;
74941;SDS011;63506;49.346;8.798;2023-09-12T03:39:43;12.23;;;8.95;;
74941;SDS011;63506;49.346;8.798;2023-09-12T03:42:11;10.55;;;7.97;;
74941;SDS011;63506;49.346;8.798;2023-09-12T03:44:38;10.65;;;6.80;;
74941;SDS011;63506;49.346;8.798;2023-09-12T03:47:13;12.18;;;9.35;;
74941;SDS011;63506;49.346;8.798;2023-09-12T03:49:40;16.42;;;10.20;;
74941;SDS011;63506;49.346;8.798;2023-09-12T03:52:10;11.88;;;9.18;;
74941;SDS011;63506;49.346;8.798;2023-09-12T03:54:40;13.82;;;10.00;;
74941;SDS011;63506;49.346;8.798;2023-09-12T03:57:08;18.08;;;9.07;;
74941;SDS011;63506;49.346;8.798;2023-09-12T03:59:35;12.80;;;8.02;;
74941;SDS011;63506;49.346;8.798;2023-09-12T04:02:03;13.88;;;8.18;;
74941;SDS011;63506;49.346;8.798;2023-09-12T04:04:32;12.88;;;9.20;;
74941;SDS011;63506;49.346;8.798;2023-09-12T04:07:00;16.80;;;10.90;;
74941;SDS011;63506;49.346;8.798;2023-09-12T04:09:28;13.98;;;8.00;;
74941;SDS011;63506;49.346;8.798;2023-09-12T04:11:55;13.93;;;8.05;;
74941;SDS011;63506;49.346;8.798;2023-09-12T04:14:23;16.65;;;8.50;;
74941;SDS011;63506;49.346;8.798;2023-09-12T04:16:50;9.98;;;8.45;;
74941;SDS011;63506;49.346;8.798;2023-09-12T04:19:17;12.50;;;8.20;;
74941;SDS011;63506;49.346;8.798;2023-09-12T04:21:49;17.45;;;10.65;;
74941;SDS011;63506;49.346;8.798;2023-09-12T04:24:21;12.00;;;7.90;;
74941;SDS011;63506;49.346;8.798;2023-09-12T04:26:51;9.68;;;7.68;;
74941;SDS011;63506;49.346;8.798;2023-09-12T04:29:19;14.55;;;9.57;;
74941;SDS011;63506;49.346;8.798;2023-09-12T04:31:46;11.18;;;7.95;;
74941;SDS011;63506;49.346;8.798;2023-09-12T04:34:13;9.45;;;7.57;;
74941;SDS011;63506;49.346;8.798;2023-09-12T04:36:41;12.85;;;8.15;;
74941;SDS011;63506;49.346;8.798;2023-09-12T04:39:11;13.15;;;9.05;;
74941;SDS011;63506;49.346;8.798;2023-09-12T04:41:41;10.63;;;9.02;;
74941;SDS011;63506;49.346;8.798;2023-09-12T04:44:09;11.45;;;8.25;;
74941;SDS011;63506;49.346;8.798;2023-09-12T04:46:37;7.90;;;6.90;;
74941;SDS011;63506;49.346;8.798;2023-09-12T04:49:05;19.42;;;10.70;;
74941;SDS011;63506;49.346;8.798;2023-09-12T04:51:32;15.05;;;9.85;;
74941;SDS011;63506;49.346;8.798;2023-09-12T04:54:03;12.27;;;8.55;;
74941;SDS011;63506;49.346;8.798;2023-09-12T04:56:34;12.10;;;7.78;;
74941;SDS011;63506;49.346;8.798;2023-09-12T04:59:02;9.88;;;7.13;;
74941;SDS011;63506;49.346;8.798;2023-09-12T05:01:29;16.38;;;8.93;;
74941;SDS011;63506;49.346;8.798;2023-09-12T05:03:57;13.18;;;7.78;;
74941;SDS011;63506;49.346;8.798;2023-09-12T05:06:24;11.95;;;7.85;;
74941;SDS011;63506;49.346;8.798;2023-09-12T05:08:52;11.95;;;10.00;;
74941;SDS011;63506;49.346;8.798;2023-09-12T05:11:19;11.25;;;9.98;;
74941;SDS011;63506;49.346;8.798;2023-09-12T05:13:48;12.02;;;9.50;;
74941;SDS011;63506;49.346;8.798;2023-09-12T05:16:19;11.30;;;8.70;;
74941;SDS011;63506;49.346;8.798;2023-09-12T05:18:46;9.90;;;8.25;;
74941;SDS011;63506;49.346;8.798;2023-09-12T05:21:15;11.50;;;7.90;;
74941;SDS011;63506;49.346;8.798;2023-09-12T05:23:42;12.90;;;9.13;;
74941;SDS011;63506;49.346;8.798;2023-09-12T05:26:10;10.82;;;8.55;;
74941;SDS011;63506;49.346;8.798;2023-09-12T05:28:37;24.95;;;11.68;;
74941;SDS011;63506;49.346;8.798;2023-09-12T05:31:06;10.88;;;9.52;;
74941;SDS011;63506;49.346;8.798;2023-09-12T05:33:36;13.05;;;9.55;;
74941;SDS011;63506;49.346;8.798;2023-09-12T05:36:03;7.70;;;6.90;;
74941;SDS011;63506;49.346;8.798;2023-09-12T05:38:31;10.32;;;8.55;;
74941;SDS011;63506;49.346;8.798;2023-09-12T05:40:58;14.75;;;9.00;;
74941;SDS011;63506;49.346;8.798;2023-09-12T05:43:26;11.70;;;9.23;;
74941;SDS011;63506;49.346;8.798;2023-09-12T05:45:53;13.32;;;9.50;;
74941;SDS011;63506;49.346;8.798;2023-09-12T05:48:36;12.57;;;7.43;;
74941;SDS011;63506;49.346;8.798;2023-09-12T05:51:06;10.73;;;8.45;;
74941;SDS011;63506;49.346;8.798;2023-09-12T05:53:33;13.63;;;8.95;;
74941;SDS011;63506;49.346;8.798;2023-09-12T05:56:01;20.70;;;10.10;;
74941;SDS011;63506;49.346;8.798;2023-09-12T05:58:29;13.30;;;7.95;;
74941;SDS011;63506;49.346;8.798;2023-09-12T06:00:59;12.00;;;10.50;;
74941;SDS011;63506;49.346;8.798;2023-09-12T06:03:26;10.60;;;7.50;;
74941;SDS011;63506;49.346;8.798;2023-09-12T06:05:56;16.80;;;10.07;;
74941;SDS011;63506;49.346;8.798;2023-09-12T06:08:24;13.13;;;10.20;;
74941;SDS011;63506;49.346;8.798;2023-09-12T06:10:51;15.45;;;10.88;;
74941;SDS011;63506;49.346;8.798;2023-09-12T06:13:19;12.73;;;9.65;;
74941;SDS011;63506;49.346;8.798;2023-09-12T06:15:49;10.90;;;8.73;;
74941;SDS011;63506;49.346;8.798;2023-09-12T06:18:18;10.40;;;7.35;;
74941;SDS011;63506;49.346;8.798;2023-09-12T06:20:52;13.73;;;8.50;;
74941;SDS011;63506;49.346;8.798;2023-09-12T06:23:23;14.55;;;9.27;;
74941;SDS011;63506;49.346;8.798;2023-09-12T06:25:54;12.38;;;9.18;;
74941;SDS011;63506;49.346;8.798;2023-09-12T06:28:25;13.90;;;7.97;;
74941;SDS011;63506;49.346;8.798;2023-09-12T06:33:22;12.10;;;7.95;;
74941;SDS011;63506;49.346;8.798;2023-09-12T06:35:50;13.75;;;9.18;;
74941;SDS011;63506;49.346;8.798;2023-09-12T06:38:21;12.02;;;8.52;;
74941;SDS011;63506;49.346;8.798;2023-09-12T06:40:50;11.05;;;7.82;;
74941;SDS011;63506;49.346;8.798;2023-09-12T06:43:18;13.85;;;8.70;;
74941;SDS011;63506;49.346;8.798;2023-09-12T06:45:45;9.30;;;8.27;;
74941;SDS011;63506;49.346;8.798;2023-09-12T06:48:15;10.30;;;8.63;;
74941;SDS011;63506;49.346;8.798;2023-09-12T06:50:45;11.63;;;8.45;;
74941;SDS011;63506;49.346;8.798;2023-09-12T06:53:12;15.43;;;8.43;;
74941;SDS011;63506;49.346;8.798;2023-09-12T06:55:40;17.38;;;10.00;;
74941;SDS011;63506;49.346;8.798;2023-09-12T06:58:10;12.55;;;8.65;;
74941;SDS011;63506;49.346;8.798;2023-09-12T07:00:41;9.75;;;7.40;;
74941;SDS011;63506;49.346;8.798;2023-09-12T07:03:08;9.27;;;7.13;;
74941;SDS011;63506;49.346;8.798;2023-09-12T07:05:38;10.25;;;6.07;;
74941;SDS011;63506;49.346;8.798;2023-09-12T07:08:08;11.43;;;6.90;;
74941;SDS011;63506;49.346;8.798;2023-09-12T07:10:35;9.07;;;7.65;;
74941;SDS011;63506;49.346;8.798;2023-09-12T07:13:03;12.27;;;7.72;;
74941;SDS011;63506;49.346;8.798;2023-09-12T07:15:32;11.52;;;7.00;;
74941;SDS011;63506;49.346;8.798;2023-09-12T07:18:02;11.70;;;7.47;;
74941;SDS011;63506;49.346;8.798;2023-09-12T07:20:31;12.30;;;6.80;;
74941;SDS011;63506;49.346;8.798;2023-09-12T07:23:00;13.40;;;6.75;;
74941;SDS011;63506;49.346;8.798;2023-09-12T07:25:28;9.10;;;7.03;;
74941;SDS011;63506;49.346;8.798;2023-09-12T07:27:55;12.10;;;7.15;;
74941;SDS011;63506;49.346;8.798;2023-09-12T07:30:26;9.07;;;6.20;;
74941;SDS011;63506;49.346;8.798;2023-09-12T07:33:02;10.15;;;6.45;;
74941;SDS011;63506;49.346;8.798;2023-09-12T07:35:38;9.73;;;6.13;;
74941;SDS011;63506;49.346;8.798;2023-09-12T07:38:05;13.95;;;6.40;;
74941;SDS011;63506;49.346;8.798;2023-09-12T07:40:33;8.00;;;5.68;;
74941;SDS011;63506;49.346;8.798;2023-09-12T07:43:00;6.05;;;5.05;;
74941;SDS011;63506;49.346;8.798;2023-09-12T07:45:28;12.02;;;7.00;;
74941;SDS011;63506;49.346;8.798;2023-09-12T07:48:03;8.10;;;5.50;;
74941;SDS011;63506;49.346;8.798;2023-09-12T07:50:32;10.77;;;6.38;;
74941;SDS011;63506;49.346;8.798;2023-09-12T07:52:59;8.25;;;6.38;;
74941;SDS011;63506;49.346;8.798;2023-09-12T07:55:27;7.80;;;5.50;;
74941;SDS011;63506;49.346;8.798;2023-09-12T07:57:56;8.43;;;6.30;;
74941;SDS011;63506;49.346;8.798;2023-09-12T08:00:24;10.05;;;7.40;;
74941;SDS011;63506;49.346;8.798;2023-09-12T08:02:51;8.50;;;6.53;;
74941;SDS011;63506;49.346;8.798;2023-09-12T08:05:20;12.00;;;6.22;;
74941;SDS011;63506;49.346;8.798;2023-09-12T08:07:47;8.52;;;5.95;;
74941;SDS011;63506;49.346;8.798;2023-09-12T08:10:17;11.45;;;6.50;;
74941;SDS011;63506;49.346;8.798;2023-09-12T08:12:45;19.33;;;6.50;;
74941;SDS011;63506;49.346;8.798;2023-09-12T08:15:12;13.82;;;5.97;;
74941;SDS011;63506;49.346;8.798;2023-09-12T08:17:41;8.80;;;6.60;;
74941;SDS011;63506;49.346;8.798;2023-09-12T08:20:09;9.38;;;5.95;;
74941;SDS011;63506;49.346;8.798;2023-09-12T08:22:38;7.18;;;6.20;;
74941;SDS011;63506;49.346;8.798;2023-09-12T08:25:06;8.40;;;5.90;;
74941;SDS011;63506;49.346;8.798;2023-09-12T08:27:33;17.00;;;8.88;;
74941;SDS011;63506;49.346;8.798;2023-09-12T08:30:01;12.63;;;6.10;;
74941;SDS011;63506;49.346;8.798;2023-09-12T08:32:32;8.73;;;6.32;;
74941;SDS011;63506;49.346;8.798;2023-09-12T08:35:01;10.43;;;6.20;;
74941;SDS011;63506;49.346;8.798;2023-09-12T08:37:32;10.48;;;7.28;;
74941;SDS011;63506;49.346;8.798;2023-09-12T08:40:04;12.27;;;6.22;;
74941;SDS011;63506;49.346;8.798;2023-09-12T08:42:33;12.88;;;6.30;;
74941;SDS011;63506;49.346;8.798;2023-09-12T08:45:06;7.72;;;5.90;;
74941;SDS011;63506;49.346;8.798;2023-09-12T08:47:40;13.52;;;5.85;;
74941;SDS011;63506;49.346;8.798;2023-09-12T08:50:09;9.88;;;6.18;;
74941;SDS011;63506;49.346;8.798;2023-09-12T08:52:39;12.70;;;8.68;;
74941;SDS011;63506;49.346;8.798;2023-09-12T08:55:09;18.05;;;7.00;;
74941;SDS011;63506;49.346;8.798;2023-09-12T08:57:39;9.10;;;7.03;;
74941;SDS011;63506;49.346;8.798;2023-09-12T09:00:08;11.75;;;6.30;;
74941;SDS011;63506;49.346;8.798;2023-09-12T09:02:38;11.55;;;8.25;;
74941;SDS011;63506;49.346;8.798;2023-09-12T09:05:07;9.15;;;6.18;;
74941;SDS011;63506;49.346;8.798;2023-09-12T09:07:35;8.77;;;6.78;;
74941;SDS011;63506;49.346;8.798;2023-09-12T09:10:05;6.82;;;6.03;;
74941;SDS011;63506;49.346;8.798;2023-09-12T09:12:34;19.23;;;7.63;;
74941;SDS011;63506;49.346;8.798;2023-09-12T09:17:53;9.32;;;7.45;;
74941;SDS011;63506;49.346;8.798;2023-09-12T09:20:22;12.82;;;7.80;;
74941;SDS011;63506;49.346;8.798;2023-09-12T09:22:56;11.68;;;8.27;;
74941;SDS011;63506;49.346;8.798;2023-09-12T09:25:25;14.48;;;8.48;;
74941;SDS011;63506;49.346;8.798;2023-09-12T09:27:56;13.82;;;7.32;;
74941;SDS011;63506;49.346;8.798;2023-09-12T09:30:38;17.30;;;7.00;;
74941;SDS011;63506;49.346;8.798;2023-09-12T09:33:07;12.55;;;6.97;;
74941;SDS011;63506;49.346;8.798;2023-09-12T09:35:34;14.43;;;6.88;;
74941;SDS011;63506;49.346;8.798;2023-09-12T09:38:02;12.60;;;7.75;;
74941;SDS011;63506;49.346;8.798;2023-09-12T09:40:31;8.73;;;6.65;;
74941;SDS011;63506;49.346;8.798;2023-09-12T09:43:00;18.05;;;8.73;;
74941;SDS011;63506;49.346;8.798;2023-09-12T09:45:30;9.65;;;7.95;;
74941;SDS011;63506;49.346;8.798;2023-09-12T09:47:58;13.30;;;8.15;;
74941;SDS011;63506;49.346;8.798;2023-09-12T09:50:26;11.95;;;8.30;;
74941;SDS011;63506;49.346;8.798;2023-09-12T09:52:54;11.82;;;7.28;;
74941;SDS011;63506;49.346;8.798;2023-09-12T09:55:23;8.77;;;6.90;;
74941;SDS011;63506;49.346;8.798;2023-09-12T09:57:54;9.00;;;8.10;;
74941;SDS011;63506;49.346;8.798;2023-09-12T10:00:25;14.45;;;9.05;;
74941;SDS011;63506;49.346;8.798;2023-09-12T10:02:56;15.10;;;7.60;;
74941;SDS011;63506;49.346;8.798;2023-09-12T10:05:24;12.02;;;7.45;;
74941;SDS011;63506;49.346;8.798;2023-09-12T10:07:52;10.50;;;8.52;;
74941;SDS011;63506;49.346;8.798;2023-09-12T10:10:22;14.73;;;7.72;;
74941;SDS011;63506;49.346;8.798;2023-09-12T10:12:53;10.80;;;7.90;;
74941;SDS011;63506;49.346;8.798;2023-09-12T10:15:28;15.82;;;8.13;;
74941;SDS011;63506;49.346;8.798;2023-09-12T10:17:58;8.82;;;6.93;;
74941;SDS011;63506;49.346;8.798;2023-09-12T10:20:33;12.85;;;7.72;;
74941;SDS011;63506;49.346;8.798;2023-09-12T10:23:48;20.48;;;8.55;;
74941;SDS011;63506;49.346;8.798;2023-09-12T10:26:27;16.73;;;9.05;;
74941;SDS011;63506;49.346;8.798;2023-09-12T10:28:59;10.30;;;8.07;;
74941;SDS011;63506;49.346;8.798;2023-09-12T10:31:28;13.60;;;7.57;;
74941;SDS011;63506;49.346;8.798;2023-09-12T10:33:59;16.40;;;7.70;;
74941;SDS011;63506;49.346;8.798;2023-09-12T10:36:28;10.85;;;8.43;;
74941;SDS011;63506;49.346;8.798;2023-09-12T10:38:56;12.15;;;7.88;;
74941;SDS011;63506;49.346;8.798;2023-09-12T10:41:29;14.98;;;7.43;;
74941;SDS011;63506;49.346;8.798;2023-09-12T10:44:06;12.05;;;8.43;;
74941;SDS011;63506;49.346;8.798;2023-09-12T10:46:46;10.40;;;7.53;;
74941;SDS011;63506;49.346;8.798;2023-09-12T10:49:27;8.10;;;7.30;;
74941;SDS011;63506;49.346;8.798;2023-09-12T10:52:08;10.65;;;6.40;;
74941;SDS011;63506;49.346;8.798;2023-09-12T10:54:40;8.00;;;7.18;;
74941;SDS011;63506;49.346;8.798;2023-09-12T10:57:08;9.25;;;7.65;;
74941;SDS011;63506;49.346;8.798;2023-09-12T10:59:51;9.83;;;7.27;;
74941;SDS011;63506;49.346;8.798;2023-09-12T11:02:38;8.70;;;6.50;;
74941;SDS011;63506;49.346;8.798;2023-09-12T11:08:07;8.50;;;7.70;;
74941;SDS011;63506;49.346;8.798;2023-09-12T11:10:39;12.27;;;7.72;;
74941;SDS011;63506;49.346;8.798;2023-09-12T11:13:10;9.40;;;7.55;;
74941;SDS011;63506;49.346;8.798;2023-09-12T11:21:40;9.93;;;7.07;;
74941;SDS011;63506;49.346;8.798;2023-09-12T11:24:07;11.63;;;6.57;;
74941;SDS011;63506;49.346;8.798;2023-09-12T11:26:35;9.73;;;6.30;;
74941;SDS011;63506;49.346;8.798;2023-09-12T11:29:12;14.13;;;6.70;;
74941;SDS011;63506;49.346;8.798;2023-09-12T11:31:52;10.43;;;6.97;;
74941;SDS011;63506;49.346;8.798;2023-09-12T11:34:55;7.07;;;6.47;;
74941;SDS011;63506;49.346;8.798;2023-09-12T11:40:52;8.35;;;6.60;;
74941;SDS011;63506;49.346;8.798;2023-09-12T11:43:46;8.48;;;6.95;;
74941;SDS011;63506;49.346;8.798;2023-09-12T11:46:22;10.70;;;7.60;;
74941;SDS011;63506;49.346;8.798;2023-09-12T11:48:53;9.27;;;6.78;;
74941;SDS011;63506;49.346;8.798;2023-09-12T11:51:30;8.02;;;6.35;;
74941;SDS011;63506;49.346;8.798;2023-09-12T11:53:59;9.07;;;5.80;;
74941;SDS011;63506;49.346;8.798;2023-09-12T11:56:27;10.85;;;6.57;;
74941;SDS011;63506;49.346;8.798;2023-09-12T11:58:58;8.00;;;7.28;;
74941;SDS011;63506;49.346;8.798;2023-09-12T12:01:31;8.57;;;6.72;;
74941;SDS011;63506;49.346;8.798;2023-09-12T12:04:00;10.18;;;6.28;;
74941;SDS011;63506;49.346;8.798;2023-09-12T12:06:42;7.60;;;6.25;;
74941;SDS011;63506;49.346;8.798;2023-09-12T12:09:52;7.38;;;6.72;;
74941;SDS011;63506;49.346;8.798;2023-09-12T12:12:23;7.30;;;6.60;;
74941;SDS011;63506;49.346;8.798;2023-09-12T12:14:53;7.82;;;6.85;;
74941;SDS011;63506;49.346;8.798;2023-09-12T12:17:21;9.88;;;6.07;;
74941;SDS011;63506;49.346;8.798;2023-09-12T12:19:48;8.32;;;6.30;;
74941;SDS011;63506;49.346;8.798;2023-09-12T12:22:15;10.45;;;7.15;;
74941;SDS011;63506;49.346;8.798;2023-09-12T12:24:45;7.43;;;6.72;;
74941;SDS011;63506;49.346;8.798;2023-09-12T12:27:15;12.32;;;6.32;;
74941;SDS011;63506;49.346;8.798;2023-09-12T12:29:43;8.85;;;6.72;;
74941;SDS011;63506;49.346;8.798;2023-09-12T12:32:10;7.70;;;6.93;;
74941;SDS011;63506;49.346;8.798;2023-09-12T12:34:39;10.32;;;6.90;;
74941;SDS011;63506;49.346;8.798;2023-09-12T12:37:06;6.65;;;6.05;;
74941;SDS011;63506;49.346;8.798;2023-09-12T12:39:33;8.18;;;6.00;;
74941;SDS011;63506;49.346;8.798;2023-09-12T12:42:01;9.57;;;6.63;;
74941;SDS011;63506;49.346;8.798;2023-09-12T12:44:34;6.68;;;5.95;;
74941;SDS011;63506;49.346;8.798;2023-09-12T12:47:06;10.90;;;7.15;;
74941;SDS011;63506;49.346;8.798;2023-09-12T12:49:36;7.85;;;6.10;;
74941;SDS011;63506;49.346;8.798;2023-09-12T12:52:05;13.05;;;7.43;;
74941;SDS011;63506;49.346;8.798;2023-09-12T12:54:32;8.82;;;5.70;;
74941;SDS011;63506;49.346;8.798;2023-09-12T12:57:00;7.20;;;6.40;;
74941;SDS011;63506;49.346;8.798;2023-09-12T12:59:28;7.30;;;6.60;;
74941;SDS011;63506;49.346;8.798;2023-09-12T13:02:02;8.40;;;5.60;;
74941;SDS011;63506;49.346;8.798;2023-09-12T13:04:35;7.80;;;6.13;;
74941;SDS011;63506;49.346;8.798;2023-09-12T13:07:03;7.30;;;6.35;;
74941;SDS011;63506;49.346;8.798;2023-09-12T13:09:32;9.52;;;6.63;;
74941;SDS011;63506;49.346;8.798;2023-09-12T13:11:59;8.63;;;6.03;;
74941;SDS011;63506;49.346;8.798;2023-09-12T13:14:27;7.20;;;6.60;;
74941;SDS011;63506;49.346;8.798;2023-09-12T13:16:57;9.82;;;6.85;;
74941;SDS011;63506;49.346;8.798;2023-09-12T13:19:26;8.30;;;6.53;;
74941;SDS011;63506;49.346;8.798;2023-09-12T13:21:53;7.63;;;6.57;;
74941;SDS011;63506;49.346;8.798;2023-09-12T13:24:21;14.02;;;6.90;;
74941;SDS011;63506;49.346;8.798;2023-09-12T13:26:51;7.28;;;5.75;;
74941;SDS011;63506;49.346;8.798;2023-09-12T13:29:19;15.50;;;6.05;;
74941;SDS011;63506;49.346;8.798;2023-09-12T13:31:46;9.07;;;6.75;;
74941;SDS011;63506;49.346;8.798;2023-09-12T13:34:16;8.13;;;6.63;;
74941;SDS011;63506;49.346;8.798;2023-09-12T13:36:45;7.40;;;5.50;;
74941;SDS011;63506;49.346;8.798;2023-09-12T13:39:13;8.27;;;5.85;;
74941;SDS011;63506;49.346;8.798;2023-09-12T13:41:40;8.32;;;5.90;;
74941;SDS011;63506;49.346;8.798;2023-09-12T13:44:08;8.27;;;5.90;;
74941;SDS011;63506;49.346;8.798;2023-09-12T13:46:38;7.55;;;6.75;;
74941;SDS011;63506;49.346;8.798;2023-09-12T13:49:06;7.65;;;6.28;;
74941;SDS011;63506;49.346;8.798;2023-09-12T13:51:38;6.68;;;6.10;;
74941;SDS011;63506;49.346;8.798;2023-09-12T13:54:07;9.70;;;5.85;;
74941;SDS011;63506;49.346;8.798;2023-09-12T13:56:43;10.82;;;6.60;;
74941;SDS011;63506;49.346;8.798;2023-09-12T13:59:12;10.73;;;8.05;;
74941;SDS011;63506;49.346;8.798;2023-09-12T14:01:39;11.20;;;6.80;;
74941;SDS011;63506;49.346;8.798;2023-09-12T14:04:08;9.10;;;5.78;;
74941;SDS011;63506;49.346;8.798;2023-09-12T14:06:36;11.23;;;6.35;;
74941;SDS011;63506;49.346;8.798;2023-09-12T14:09:03;10.88;;;5.78;;
74941;SDS011;63506;49.346;8.798;2023-09-12T14:11:32;7.80;;;5.95;;
74941;SDS011;63506;49.346;8.798;2023-09-12T14:14:00;7.45;;;5.63;;
74941;SDS011;63506;49.346;8.798;2023-09-12T14:16:27;7.03;;;6.43;;
74941;SDS011;63506;49.346;8.798;2023-09-12T14:19:05;6.95;;;6.18;;
74941;SDS011;63506;49.346;8.798;2023-09-12T14:21:44;5.97;;;5.38;;
74941;SDS011;63506;49.346;8.798;2023-09-12T14:24:11;9.63;;;6.38;;
74941;SDS011;63506;49.346;8.798;2023-09-12T14:26:41;9.52;;;5.93;;
74941;SDS011;63506;49.346;8.798;2023-09-12T14:29:08;5.80;;;5.30;;
74941;SDS011;63506;49.346;8.798;2023-09-12T14:31:39;6.88;;;5.38;;
74941;SDS011;63506;49.346;8.798;2023-09-12T14:34:15;10.45;;;6.63;;
74941;SDS011;63506;49.346;8.798;2023-09-12T14:36:44;9.60;;;6.30;;
74941;SDS011;63506;49.346;8.798;2023-09-12T14:39:15;10.88;;;6.32;;
74941;SDS011;63506;49.346;8.798;2023-09-12T14:41:52;6.00;;;5.30;;
74941;SDS011;63506;49.346;8.798;2023-09-12T14:44:41;8.40;;;6.28;;
74941;SDS011;63506;49.346;8.798;2023-09-12T14:47:36;10.73;;;5.95;;
74941;SDS011;63506;49.346;8.798;2023-09-12T14:50:20;10.40;;;6.72;;
74941;SDS011;63506;49.346;8.798;2023-09-12T14:52:51;8.80;;;7.15;;
74941;SDS011;63506;49.346;8.798;2023-09-12T14:55:19;8.38;;;5.78;;
74941;SDS011;63506;49.346;8.798;2023-09-12T15:01:01;13.05;;;6.95;;
74941;SDS011;63506;49.346;8.798;2023-09-12T15:03:37;13.73;;;7.10;;
74941;SDS011;63506;49.346;8.798;2023-09-12T15:06:16;13.15;;;6.47;;
74941;SDS011;63506;49.346;8.798;2023-09-12T15:11:44;7.45;;;6.35;;
74941;SDS011;63506;49.346;8.798;2023-09-12T15:14:20;10.68;;;7.00;;
74941;SDS011;63506;49.346;8.798;2023-09-12T15:16:58;7.90;;;5.95;;
74941;SDS011;63506;49.346;8.798;2023-09-12T15:19:25;9.52;;;6.35;;